Time;durP1;ratioP1;P1;durP2;ratioP2;P2;SDS_P1;SDS_P2;PMS_P1;PMS_P2;Temp;Humidity;BMP_temperature;BMP_pressure;BME280_temperature;BME280_humidity;BME280_pressure;Samples;Min_cycle;Max_cycle;Signal;HPM_P1;HPM_P2
2023/05/16 00:00:08;;;;;;;10.68;8.30;;;21.50;71.10;;;;;;4890475;28;88400;-85
2023/05/16 00:02:35;;;;;;;10.93;7.68;;;21.50;71.00;;;;;;4891181;28;88634;-83
2023/05/16 00:05:03;;;;;;;9.95;7.78;;;21.50;71.00;;;;;;4890822;28;87813;-83
2023/05/16 00:07:29;;;;;;;10.07;8.25;;;21.50;71.00;;;;;;4876359;28;88359;-82
2023/05/16 00:09:55;;;;;;;9.23;7.82;;;21.50;71.00;;;;;;4883486;28;89736;-83
2023/05/16 00:12:21;;;;;;;9.40;7.63;;;21.50;71.00;;;;;;4873687;28;89312;-83
2023/05/16 00:14:47;;;;;;;13.00;8.85;;;21.50;71.10;;;;;;4876209;28;87280;-84
2023/05/16 00:17:13;;;;;;;10.93;8.55;;;21.40;70.70;;;;;;4875140;28;87999;-85
2023/05/16 00:19:39;;;;;;;9.95;7.70;;;21.40;71.00;;;;;;4875283;28;87992;-83
2023/05/16 00:22:05;;;;;;;10.38;8.15;;;21.40;70.90;;;;;;4876047;28;86976;-82
2023/05/16 00:24:32;;;;;;;11.18;8.60;;;21.40;70.80;;;;;;4890875;28;88093;-83
2023/05/16 00:26:58;;;;;;;10.00;7.88;;;21.40;70.90;;;;;;4877726;28;87848;-83
2023/05/16 00:29:24;;;;;;;10.38;7.85;;;21.40;71.10;;;;;;4877091;28;87190;-82
2023/05/16 00:31:49;;;;;;;11.55;8.75;;;21.40;71.20;;;;;;4889970;28;90234;-83
2023/05/16 00:34:15;;;;;;;12.93;8.93;;;21.40;71.10;;;;;;4891495;28;89558;-83
2023/05/16 00:36:41;;;;;;;11.40;8.35;;;21.40;71.10;;;;;;4879665;28;87588;-84
2023/05/16 00:39:06;;;;;;;11.10;8.07;;;21.40;71.10;;;;;;4875276;28;87016;-83
2023/05/16 00:41:33;;;;;;;12.68;8.23;;;21.40;71.20;;;;;;4875442;28;87532;-82
2023/05/16 00:44:00;;;;;;;9.57;7.47;;;21.40;71.20;;;;;;4875275;28;87736;-85
2023/05/16 00:46:26;;;;;;;10.23;8.05;;;21.40;71.10;;;;;;4877069;28;87564;-84
2023/05/16 00:48:52;;;;;;;10.55;7.68;;;21.30;71.10;;;;;;4889418;28;87090;-86
2023/05/16 00:51:18;;;;;;;8.57;7.25;;;21.30;71.00;;;;;;4872596;28;88672;-82
2023/05/16 00:53:44;;;;;;;11.43;7.80;;;21.30;70.90;;;;;;4876638;28;87357;-82
2023/05/16 00:56:10;;;;;;;10.25;7.53;;;21.30;70.90;;;;;;4875890;28;88473;-84
2023/05/16 00:58:36;;;;;;;12.52;7.65;;;21.30;71.10;;;;;;4875493;28;87705;-83
2023/05/16 01:01:06;;;;;;;10.50;7.70;;;21.30;70.90;;;;;;4889136;28;88767;-83
2023/05/16 01:03:33;;;;;;;9.77;6.95;;;21.30;70.90;;;;;;4887789;28;90059;-82
2023/05/16 01:05:59;;;;;;;11.07;8.73;;;21.30;71.00;;;;;;4889636;28;88277;-85
2023/05/16 01:08:24;;;;;;;8.77;7.60;;;21.30;70.80;;;;;;4874031;28;88571;-83
2023/05/16 01:11:25;;;;;;;10.05;7.90;;;21.30;70.90;;;;;;4875352;28;87928;-83
2023/05/16 01:14:21;;;;;;;9.48;7.68;;;21.30;70.70;;;;;;4887306;28;88551;-86
2023/05/16 01:16:58;;;;;;;7.68;6.57;;;21.30;70.90;;;;;;4890865;28;87458;-83
2023/05/16 01:19:46;;;;;;;9.88;6.90;;;21.30;70.90;;;;;;4874275;28;91874;-85
2023/05/16 01:22:25;;;;;;;10.18;7.45;;;21.30;70.90;;;;;;4873224;28;88905;-83
2023/05/16 01:25:01;;;;;;;;;;;21.30;71.60;;;;;;4889115;28;87425;-83
2023/05/16 01:27:28;;;;;;;9.93;7.28;;;21.30;70.80;;;;;;4876000;28;87235;-82
2023/05/16 01:29:57;;;;;;;9.55;7.25;;;21.30;70.80;;;;;;4888916;28;87857;-83
2023/05/16 01:32:23;;;;;;;8.68;6.90;;;21.30;70.90;;;;;;4874605;28;87901;-83
2023/05/16 01:34:52;;;;;;;10.15;7.53;;;21.30;71.00;;;;;;4875131;28;87612;-81
2023/05/16 01:37:20;;;;;;;;;;;21.20;70.80;;;;;;4874994;28;88490;-84
2023/05/16 01:40:04;;;;;;;8.45;6.90;;;21.20;70.80;;;;;;4890795;28;89692;-84
2023/05/16 01:42:33;;;;;;;10.23;7.05;;;21.20;70.70;;;;;;4871891;28;88838;-83
2023/05/16 01:45:20;;;;;;;9.15;7.40;;;21.30;70.80;;;;;;4874822;28;87916;-82
2023/05/16 01:48:00;;;;;;;8.63;7.10;;;21.20;70.70;;;;;;4873969;28;88421;-83
2023/05/16 01:50:31;;;;;;;9.35;7.20;;;21.30;70.80;;;;;;4875109;28;87379;-83
2023/05/16 01:53:08;;;;;;;9.82;7.13;;;21.30;70.70;;;;;;4874469;28;88193;-85
2023/05/16 01:55:33;;;;;;;9.05;6.80;;;21.20;70.70;;;;;;4891348;28;87599;-82
2023/05/16 01:58:02;;;;;;;8.07;7.28;;;21.20;70.80;;;;;;4888830;28;87740;-85
2023/05/16 02:00:27;;;;;;;8.80;6.97;;;21.20;70.50;;;;;;4872189;28;87693;-84
2023/05/16 02:02:53;;;;;;;9.38;7.47;;;21.20;70.60;;;;;;4875229;28;90756;-83
2023/05/16 02:05:19;;;;;;;7.80;6.57;;;21.20;70.70;;;;;;4877941;28;88360;-82
2023/05/16 02:07:45;;;;;;;8.75;6.78;;;21.20;70.80;;;;;;4879765;28;87786;-83
2023/05/16 02:10:12;;;;;;;9.23;7.22;;;21.20;71.40;;;;;;4876359;28;89241;-83
2023/05/16 02:12:38;;;;;;;10.05;7.22;;;21.20;70.70;;;;;;4877062;28;88337;-83
2023/05/16 02:15:05;;;;;;;7.93;6.70;;;21.20;70.70;;;;;;4877370;28;89490;-83
2023/05/16 02:17:30;;;;;;;8.18;6.38;;;21.20;70.80;;;;;;4878352;28;87859;-83
2023/05/16 02:19:56;;;;;;;9.10;6.32;;;21.20;70.80;;;;;;4875919;28;87074;-85
2023/05/16 02:22:22;;;;;;;8.25;6.72;;;21.20;70.70;;;;;;4877879;28;88092;-86
2023/05/16 02:24:47;;;;;;;8.35;6.78;;;21.10;70.60;;;;;;4875468;28;87427;-83
2023/05/16 02:27:13;;;;;;;8.77;6.32;;;21.10;70.70;;;;;;4876749;28;87204;-83
2023/05/16 02:29:39;;;;;;;9.48;7.15;;;21.20;70.60;;;;;;4884510;28;87129;-83
2023/05/16 02:32:05;;;;;;;7.50;6.15;;;21.20;70.80;;;;;;4896441;28;88017;-85
2023/05/16 02:34:30;;;;;;;8.02;6.43;;;21.10;70.60;;;;;;4897438;28;87633;-83
2023/05/16 02:36:56;;;;;;;11.55;7.45;;;21.10;70.60;;;;;;4893940;28;88117;-83
2023/05/16 02:39:22;;;;;;;7.65;6.05;;;21.20;70.80;;;;;;4896609;28;88005;-85
2023/05/16 02:41:47;;;;;;;8.25;6.32;;;21.20;70.70;;;;;;4897611;28;88289;-86
2023/05/16 02:44:13;;;;;;;8.35;6.88;;;21.20;70.70;;;;;;4895229;28;87622;-86
2023/05/16 02:46:38;;;;;;;8.15;6.50;;;21.20;70.50;;;;;;4894874;28;87289;-84
2023/05/16 02:49:04;;;;;;;7.18;5.90;;;21.10;70.50;;;;;;4895722;28;87845;-82
2023/05/16 02:51:30;;;;;;;8.48;6.47;;;21.20;70.80;;;;;;4896509;28;87335;-84
2023/05/16 02:53:56;;;;;;;8.48;5.85;;;21.20;70.50;;;;;;4894770;28;88616;-87
2023/05/16 02:56:22;;;;;;;8.00;6.38;;;21.10;70.40;;;;;;4894580;28;87845;-83
2023/05/16 02:58:48;;;;;;;7.65;6.38;;;21.10;70.30;;;;;;4895839;28;87181;-88
2023/05/16 03:01:15;;;;;;;8.52;6.45;;;21.10;70.40;;;;;;4895459;28;93172;-83
2023/05/16 03:03:41;;;;;;;9.77;6.72;;;21.10;71.30;;;;;;4895726;28;88599;-82
2023/05/16 03:06:07;;;;;;;8.32;6.43;;;21.10;70.60;;;;;;4897604;28;87858;-86
2023/05/16 03:08:33;;;;;;;7.55;6.28;;;21.10;70.30;;;;;;4896985;28;87520;-81
2023/05/16 03:10:59;;;;;;;7.90;6.22;;;21.10;70.60;;;;;;4894870;28;87589;-81
2023/05/16 03:13:25;;;;;;;9.52;6.13;;;21.10;70.40;;;;;;4895182;28;88811;-82
2023/05/16 03:15:51;;;;;;;7.85;5.82;;;21.10;70.30;;;;;;4895584;28;87423;-85
2023/05/16 03:18:17;;;;;;;7.72;5.80;;;21.10;70.40;;;;;;4896086;28;86513;-83
2023/05/16 03:20:42;;;;;;;8.50;6.70;;;21.10;70.40;;;;;;4895300;28;86870;-83
2023/05/16 03:23:08;;;;;;;8.30;6.32;;;21.10;70.50;;;;;;4895264;28;88686;-84
2023/05/16 03:25:35;;;;;;;7.85;6.25;;;21.10;70.30;;;;;;4895968;28;88934;-83
2023/05/16 03:28:01;;;;;;;9.60;5.68;;;21.10;70.20;;;;;;4895470;28;87358;-82
2023/05/16 03:30:27;;;;;;;7.78;6.55;;;21.10;70.20;;;;;;4895660;28;88100;-82
2023/05/16 03:32:53;;;;;;;7.05;5.47;;;21.10;70.30;;;;;;4896142;28;88249;-83
2023/05/16 03:35:19;;;;;;;8.60;6.15;;;21.10;70.20;;;;;;4896475;28;87812;-82
2023/05/16 03:37:45;;;;;;;7.45;6.13;;;21.10;70.30;;;;;;4894351;28;87679;-83
2023/05/16 03:40:11;;;;;;;6.80;6.05;;;21.10;70.00;;;;;;4896273;28;87465;-82
2023/05/16 03:42:36;;;;;;;8.25;6.30;;;21.10;70.20;;;;;;4893566;28;88361;-82
2023/05/16 03:45:05;;;;;;;5.82;5.00;;;21.00;70.10;;;;;;4894636;28;87463;-84
2023/05/16 03:47:31;;;;;;;9.17;6.17;;;21.10;70.20;;;;;;4891234;28;89230;-84
2023/05/16 03:49:56;;;;;;;7.38;5.90;;;21.00;70.00;;;;;;4903215;28;88870;-86
2023/05/16 03:52:23;;;;;;;7.28;5.30;;;21.00;70.00;;;;;;4895168;28;89636;-83
2023/05/16 03:54:48;;;;;;;6.72;5.38;;;21.00;70.10;;;;;;4909239;28;87883;-83
2023/05/16 03:57:14;;;;;;;6.55;5.25;;;21.00;70.10;;;;;;4893653;28;89466;-86
2023/05/16 03:59:40;;;;;;;5.93;4.80;;;21.00;70.90;;;;;;4897543;28;89237;-85
2023/05/16 04:02:06;;;;;;;8.48;6.32;;;21.00;70.20;;;;;;4893574;28;90309;-83
2023/05/16 04:04:31;;;;;;;7.60;5.97;;;21.00;69.90;;;;;;4897349;28;87418;-88
2023/05/16 04:06:57;;;;;;;7.45;5.30;;;21.00;69.90;;;;;;4894848;28;86953;-82
2023/05/16 04:09:23;;;;;;;8.20;5.50;;;21.00;69.90;;;;;;4894608;28;88215;-85
2023/05/16 04:11:48;;;;;;;7.60;5.53;;;21.00;69.90;;;;;;4895041;28;87780;-83
2023/05/16 04:14:14;;;;;;;8.93;5.80;;;21.00;69.80;;;;;;4892771;28;87883;-84
2023/05/16 04:16:40;;;;;;;6.15;5.30;;;21.00;69.90;;;;;;4895733;28;87403;-82
2023/05/16 04:19:06;;;;;;;7.70;5.80;;;21.00;69.70;;;;;;4894275;28;91603;-82
2023/05/16 04:21:32;;;;;;;6.72;5.05;;;21.00;69.70;;;;;;4896165;28;87203;-83
2023/05/16 04:23:58;;;;;;;6.53;5.45;;;21.00;69.30;;;;;;4896052;28;87335;-84
2023/05/16 04:26:24;;;;;;;7.63;5.50;;;21.00;69.50;;;;;;4889668;28;87205;-84
2023/05/16 04:28:50;;;;;;;5.93;4.50;;;21.00;69.70;;;;;;4905899;28;88197;-82
2023/05/16 04:31:16;;;;;;;6.38;5.05;;;21.00;69.20;;;;;;4893833;28;88334;-85
2023/05/16 04:33:41;;;;;;;6.43;5.07;;;21.00;69.40;;;;;;4895597;28;87596;-86
2023/05/16 04:36:07;;;;;;;7.88;5.35;;;21.00;69.40;;;;;;4895795;28;87169;-82
2023/05/16 04:38:33;;;;;;;7.15;5.68;;;21.00;69.50;;;;;;4891820;28;88916;-81
2023/05/16 04:40:59;;;;;;;8.50;5.40;;;21.00;69.30;;;;;;4893700;28;89490;-87
2023/05/16 04:43:25;;;;;;;6.43;4.88;;;21.00;69.50;;;;;;4894635;28;87862;-83
2023/05/16 04:45:52;;;;;;;5.57;4.82;;;21.00;69.30;;;;;;4893231;28;87434;-83
2023/05/16 04:48:18;;;;;;;8.02;5.40;;;20.90;69.10;;;;;;4891537;28;90380;-85
2023/05/16 04:50:44;;;;;;;6.47;5.07;;;21.00;69.30;;;;;;4895589;28;87164;-83
2023/05/16 04:53:10;;;;;;;5.95;4.60;;;21.00;69.40;;;;;;4894184;28;87615;-86
2023/05/16 04:55:36;;;;;;;6.40;5.03;;;21.00;69.10;;;;;;4892657;28;87180;-82
2023/05/16 04:58:02;;;;;;;6.03;4.70;;;20.90;69.40;;;;;;4893003;28;88147;-88
2023/05/16 05:00:27;;;;;;;7.25;5.05;;;21.00;69.60;;;;;;4891364;28;87551;-83
2023/05/16 05:02:53;;;;;;;7.30;5.50;;;21.00;69.60;;;;;;4893764;28;87910;-83
2023/05/16 05:05:19;;;;;;;7.85;5.38;;;20.90;70.00;;;;;;4895686;28;87339;-85
2023/05/16 05:07:45;;;;;;;8.82;5.65;;;20.90;70.30;;;;;;4894668;28;87098;-83
2023/05/16 05:10:11;;;;;;;6.82;5.50;;;20.90;70.50;;;;;;4894300;28;87859;-84
2023/05/16 05:12:36;;;;;;;8.52;5.32;;;20.90;70.70;;;;;;4893094;28;87568;-83
2023/05/16 05:15:03;;;;;;;7.00;5.00;;;20.90;70.60;;;;;;4892323;28;89559;-83
2023/05/16 05:17:29;;;;;;;6.13;4.10;;;21.00;70.30;;;;;;4894948;28;88587;-84
2023/05/16 05:19:54;;;;;;;7.90;5.32;;;21.00;65.20;;;;;;4894443;28;87254;-84
2023/05/16 05:22:20;;;;;;;8.73;4.90;;;21.00;68.00;;;;;;4891983;28;88000;-83
2023/05/16 05:24:46;;;;;;;8.35;4.53;;;21.00;68.30;;;;;;4893331;28;87549;-84
2023/05/16 05:27:12;;;;;;;8.13;4.90;;;20.90;68.40;;;;;;4892235;28;88756;-83
2023/05/16 05:29:38;;;;;;;5.70;4.60;;;20.80;68.80;;;;;;4892906;28;88212;-84
2023/05/16 05:32:04;;;;;;;8.05;4.45;;;20.80;68.80;;;;;;4890837;28;87414;-82
2023/05/16 05:34:30;;;;;;;5.70;4.60;;;20.80;68.70;;;;;;4894145;28;87199;-83
2023/05/16 05:36:56;;;;;;;8.15;4.72;;;20.80;68.60;;;;;;4891520;28;88390;-85
2023/05/16 05:39:23;;;;;;;4.90;3.90;;;20.80;68.60;;;;;;4893251;28;87609;-85
2023/05/16 05:41:48;;;;;;;7.03;4.15;;;20.80;68.30;;;;;;4892892;28;87722;-83
2023/05/16 05:44:14;;;;;;;5.78;4.20;;;20.90;68.00;;;;;;4893432;28;86953;-83
2023/05/16 05:46:40;;;;;;;6.60;3.80;;;20.90;68.60;;;;;;4893607;28;88330;-84
2023/05/16 05:49:06;;;;;;;6.88;4.18;;;21.00;68.10;;;;;;4893045;28;87457;-83
2023/05/16 05:51:32;;;;;;;5.70;4.22;;;21.00;68.20;;;;;;4892321;28;88857;-83
2023/05/16 05:53:58;;;;;;;6.28;4.13;;;21.00;68.10;;;;;;4892655;28;87255;-83
2023/05/16 05:56:24;;;;;;;5.85;4.07;;;21.00;67.90;;;;;;4892300;28;87938;-84
2023/05/16 05:58:50;;;;;;;5.47;4.07;;;21.10;68.20;;;;;;4892309;28;87374;-84
2023/05/16 06:01:16;;;;;;;6.72;4.10;;;21.10;68.00;;;;;;4891431;28;86957;-85
2023/05/16 06:03:42;;;;;;;6.35;3.65;;;21.20;67.30;;;;;;4893099;28;88106;-84
2023/05/16 06:06:08;;;;;;;6.22;4.30;;;21.30;66.60;;;;;;4893373;28;87856;-84
2023/05/16 06:08:34;;;;;;;4.38;3.55;;;21.20;66.30;;;;;;4892774;28;88359;-87
2023/05/16 06:11:00;;;;;;;6.40;3.83;;;21.20;68.30;;;;;;4895065;28;87838;-84
2023/05/16 06:13:26;;;;;;;7.40;3.90;;;21.20;68.10;;;;;;4891760;28;89088;-83
2023/05/16 06:15:52;;;;;;;9.70;3.95;;;21.30;67.00;;;;;;4892831;28;89120;-85
2023/05/16 06:18:19;;;;;;;11.18;4.45;;;21.30;66.70;;;;;;4892196;28;88779;-87
2023/05/16 06:20:44;;;;;;;7.05;3.53;;;21.40;66.10;;;;;;4893640;28;88013;-83
2023/05/16 06:23:10;;;;;;;10.50;4.30;;;21.40;65.90;;;;;;4892544;28;86943;-84
2023/05/16 06:25:36;;;;;;;7.22;3.80;;;21.50;65.70;;;;;;4894549;28;87507;-85
2023/05/16 06:28:02;;;;;;;11.05;4.10;;;21.50;66.00;;;;;;4893464;28;89917;-84
2023/05/16 06:30:27;;;;;;;8.45;4.00;;;21.50;66.20;;;;;;4893790;28;87868;-83
2023/05/16 06:32:53;;;;;;;7.78;3.78;;;21.50;66.20;;;;;;4894255;28;86989;-91
2023/05/16 06:35:19;;;;;;;4.95;3.30;;;21.50;66.70;;;;;;4896115;28;87459;-82
2023/05/16 06:37:44;;;;;;;6.63;3.45;;;21.60;66.60;;;;;;4894314;28;90086;-89
2023/05/16 06:40:10;;;;;;;8.27;3.80;;;21.60;67.30;;;;;;4894926;28;88877;-86
2023/05/16 06:42:36;;;;;;;9.82;3.78;;;21.70;67.60;;;;;;4896225;28;86962;-84
2023/05/16 06:45:02;;;;;;;9.93;3.75;;;21.80;67.60;;;;;;4892600;28;87302;-89
2023/05/16 06:47:28;;;;;;;7.30;3.63;;;21.70;68.70;;;;;;4897072;28;87646;-84
2023/05/16 06:49:53;;;;;;;6.47;3.70;;;21.70;68.70;;;;;;4900425;28;87789;-88
2023/05/16 06:52:21;;;;;;;14.38;4.20;;;21.70;69.00;;;;;;4900728;28;87720;-87
2023/05/16 06:54:46;;;;;;;7.93;3.22;;;21.70;68.60;;;;;;4898397;28;87726;-84
2023/05/16 06:57:12;;;;;;;7.43;3.22;;;21.60;68.40;;;;;;4899140;28;88152;-81
2023/05/16 06:59:38;;;;;;;8.40;3.40;;;21.60;68.30;;;;;;4900041;28;87075;-83
2023/05/16 07:02:05;;;;;;;8.32;3.33;;;21.60;68.30;;;;;;4891754;28;87813;-82
2023/05/16 07:04:31;;;;;;;8.35;3.58;;;21.60;67.30;;;;;;4890582;28;88189;-81
2023/05/16 07:06:57;;;;;;;8.80;3.15;;;21.50;67.30;;;;;;4896922;28;91094;-82
2023/05/16 07:09:23;;;;;;;8.98;3.70;;;21.50;66.90;;;;;;4891555;28;87470;-82
2023/05/16 07:11:48;;;;;;;7.07;3.28;;;21.50;66.70;;;;;;4891811;28;87597;-86
2023/05/16 07:14:14;;;;;;;6.72;3.50;;;21.50;66.20;;;;;;4890044;28;88537;-82
2023/05/16 07:16:40;;;;;;;9.30;3.47;;;21.40;65.40;;;;;;4891480;28;87770;-81
2023/05/16 07:19:06;;;;;;;8.32;3.40;;;21.50;65.20;;;;;;4898965;28;87587;-81
2023/05/16 07:21:32;;;;;;;7.50;3.25;;;21.40;65.10;;;;;;4891356;28;87097;-80
2023/05/16 07:23:57;;;;;;;7.65;3.00;;;21.50;63.60;;;;;;4889588;28;88195;-81
2023/05/16 07:26:23;;;;;;;5.95;2.88;;;21.50;62.90;;;;;;4891750;28;87416;-81
2023/05/16 07:28:49;;;;;;;7.20;2.65;;;21.50;62.40;;;;;;4891670;28;88519;-80
2023/05/16 07:31:16;;;;;;;7.93;3.63;;;21.50;62.60;;;;;;4893574;28;87883;-81
2023/05/16 07:33:42;;;;;;;8.90;3.72;;;21.50;61.60;;;;;;4893169;28;90237;-83
2023/05/16 07:36:08;;;;;;;8.90;2.42;;;21.50;61.10;;;;;;4894290;28;87760;-81
2023/05/16 07:38:34;;;;;;;6.72;2.28;;;21.50;60.20;;;;;;4895525;28;87360;-84
2023/05/16 07:41:00;;;;;;;9.50;3.22;;;21.60;60.00;;;;;;4896674;28;87705;-84
2023/05/16 07:43:25;;;;;;;8.82;2.92;;;21.60;60.10;;;;;;4897528;28;91255;-85
2023/05/16 07:45:51;;;;;;;8.68;3.38;;;21.60;59.90;;;;;;4895615;28;89642;-85
2023/05/16 07:48:17;;;;;;;7.55;2.47;;;21.60;59.30;;;;;;4895173;28;87357;-85
2023/05/16 07:50:43;;;;;;;4.78;2.35;;;21.60;59.10;;;;;;4897662;28;87981;-83
2023/05/16 07:53:09;;;;;;;9.65;3.00;;;21.60;58.70;;;;;;4894857;28;88643;-85
2023/05/16 07:55:34;;;;;;;5.80;2.60;;;21.60;59.10;;;;;;4896655;28;88862;-82
2023/05/16 07:58:00;;;;;;;7.30;2.80;;;21.60;58.90;;;;;;4894852;28;87096;-84
2023/05/16 08:00:26;;;;;;;12.95;3.08;;;21.50;59.30;;;;;;4892519;28;88070;-82
2023/05/16 08:02:52;;;;;;;9.60;3.33;;;21.50;59.00;;;;;;4894530;28;87541;-85
2023/05/16 08:05:17;;;;;;;5.95;2.38;;;21.50;59.40;;;;;;4894538;28;88330;-83
2023/05/16 08:07:43;;;;;;;8.27;2.58;;;21.50;59.70;;;;;;4896866;28;86994;-83
2023/05/16 08:10:09;;;;;;;10.25;2.88;;;21.40;59.60;;;;;;4892479;28;88739;-85
2023/05/16 08:12:35;;;;;;;8.35;2.53;;;21.50;59.90;;;;;;4893395;28;88059;-85
2023/05/16 08:15:03;;;;;;;9.27;3.40;;;21.50;59.50;;;;;;4894653;28;87669;-87
2023/05/16 08:17:29;;;;;;;5.75;2.45;;;21.50;59.60;;;;;;4893926;28;88153;-83
2023/05/16 08:19:55;;;;;;;8.00;2.35;;;21.60;59.00;;;;;;4895516;28;87577;-83
2023/05/16 08:22:21;;;;;;;6.25;2.33;;;21.50;58.60;;;;;;4895817;28;87566;-83
2023/05/16 08:24:46;;;;;;;6.68;2.38;;;21.60;58.40;;;;;;4893536;28;89135;-83
2023/05/16 08:27:12;;;;;;;5.07;2.10;;;21.50;57.90;;;;;;4894126;28;87348;-83
2023/05/16 08:29:38;;;;;;;9.55;3.05;;;21.50;57.30;;;;;;4893918;28;87289;-82
2023/05/16 08:32:04;;;;;;;4.38;2.00;;;21.60;57.40;;;;;;4893769;28;87889;-83
2023/05/16 08:34:31;;;;;;;8.30;2.20;;;21.60;57.10;;;;;;4895674;28;88668;-82
2023/05/16 08:36:56;;;;;;;10.00;2.50;;;21.60;56.70;;;;;;4894579;28;87443;-87
2023/05/16 08:39:22;;;;;;;5.10;1.80;;;21.60;56.70;;;;;;4897684;28;88241;-87
2023/05/16 08:41:48;;;;;;;6.07;2.10;;;21.60;56.60;;;;;;4893720;28;91397;-90
2023/05/16 08:44:20;;;;;;;5.43;2.10;;;21.60;56.40;;;;;;4881364;28;89753;-82
2023/05/16 08:46:51;;;;;;;5.82;2.20;;;21.80;55.30;;;;;;4894484;28;87648;-86
2023/05/16 08:49:17;;;;;;;8.02;2.10;;;21.80;55.50;;;;;;4893382;28;93312;-84
2023/05/16 08:51:47;;;;;;;5.25;1.95;;;21.80;55.00;;;;;;4892571;28;88615;-86
2023/05/16 08:54:15;;;;;;;10.57;2.30;;;21.80;55.50;;;;;;4890587;28;88504;-82
2023/05/16 08:56:42;;;;;;;6.55;1.77;;;21.80;56.10;;;;;;4891794;28;87182;-84
2023/05/16 08:59:08;;;;;;;4.00;1.70;;;21.80;56.20;;;;;;4891957;28;89295;-83
2023/05/16 09:01:35;;;;;;;5.15;2.05;;;21.80;56.10;;;;;;4894936;28;88221;-83
2023/05/16 09:04:02;;;;;;;6.05;2.45;;;21.80;56.50;;;;;;4893647;28;88682;-85
2023/05/16 09:06:28;;;;;;;5.35;2.20;;;21.80;55.40;;;;;;4893103;28;88396;-85
2023/05/16 09:08:53;;;;;;;4.25;2.00;;;21.80;55.50;;;;;;4894734;28;87820;-86
2023/05/16 09:11:20;;;;;;;4.43;1.73;;;21.70;55.60;;;;;;4891587;28;88498;-85
2023/05/16 09:13:47;;;;;;;4.60;1.75;;;21.70;56.10;;;;;;4893769;28;87902;-84
2023/05/16 09:16:16;;;;;;;5.65;1.70;;;21.60;56.00;;;;;;4891625;28;87460;-84
2023/05/16 09:18:44;;;;;;;5.15;1.55;;;21.60;55.90;;;;;;4894777;28;87300;-86
2023/05/16 09:21:11;;;;;;;4.47;1.67;;;21.60;56.10;;;;;;4893825;28;88139;-87
2023/05/16 09:23:37;;;;;;;4.68;2.05;;;21.60;56.30;;;;;;4892439;28;89987;-84
2023/05/16 09:26:06;;;;;;;4.55;1.90;;;21.60;56.50;;;;;;4892438;28;87516;-85
2023/05/16 09:28:32;;;;;;;7.07;2.05;;;21.60;56.50;;;;;;4893378;28;87434;-84
2023/05/16 09:30:58;;;;;;;3.78;1.65;;;21.70;56.70;;;;;;4891850;28;88018;-84
2023/05/16 09:33:27;;;;;;;5.07;1.90;;;21.70;56.80;;;;;;4892154;28;88846;-84
2023/05/16 09:35:58;;;;;;;4.13;1.50;;;21.60;56.90;;;;;;4907912;28;87665;-85
2023/05/16 09:38:26;;;;;;;7.20;2.03;;;21.60;57.40;;;;;;4891510;28;89450;-85
2023/05/16 09:40:52;;;;;;;6.70;1.90;;;21.70;57.90;;;;;;4891276;28;87958;-84
2023/05/16 09:43:29;;;;;;;3.40;1.83;;;21.60;57.70;;;;;;4891422;28;87577;-85
2023/05/16 09:45:58;;;;;;;5.75;2.10;;;21.60;57.80;;;;;;4892015;28;87329;-85
2023/05/16 09:48:27;;;;;;;6.93;1.75;;;21.60;58.20;;;;;;4891982;28;93245;-86
2023/05/16 09:50:53;;;;;;;9.25;1.60;;;21.70;58.50;;;;;;4891784;28;87087;-82
2023/05/16 09:53:27;;;;;;;5.90;1.77;;;21.70;58.20;;;;;;4891954;28;87550;-84
2023/05/16 09:56:09;;;;;;;10.05;2.58;;;21.80;57.20;;;;;;4893494;28;89242;-83
2023/05/16 09:58:39;;;;;;;9.32;3.70;;;21.80;57.60;;;;;;4891708;28;87661;-83
2023/05/16 10:01:06;;;;;;;14.63;4.65;;;21.70;57.40;;;;;;4907376;28;87977;-84
2023/05/16 10:03:37;;;;;;;32.38;7.38;;;21.70;57.10;;;;;;4892041;28;86938;-82
2023/05/16 10:06:04;;;;;;;37.92;8.60;;;21.70;56.30;;;;;;4892351;28;87715;-82
2023/05/16 10:08:35;;;;;;;40.97;10.00;;;21.80;56.30;;;;;;4890772;28;87623;-83
2023/05/16 10:11:01;;;;;;;24.75;6.15;;;21.80;56.30;;;;;;4891241;28;89057;-84
2023/05/16 10:13:35;;;;;;;19.50;5.22;;;21.70;54.90;;;;;;4892022;28;87933;-82
2023/05/16 10:16:12;;;;;;;20.20;5.05;;;21.80;55.00;;;;;;4893205;28;87655;-84
2023/05/16 10:18:39;;;;;;;16.63;4.68;;;21.70;54.50;;;;;;4890227;28;87169;-83
2023/05/16 10:21:12;;;;;;;22.15;5.43;;;21.70;54.20;;;;;;4883163;28;90622;-83
2023/05/16 10:23:41;;;;;;;24.13;6.15;;;21.80;54.40;;;;;;4891749;28;88541;-83
2023/05/16 10:26:08;;;;;;;17.65;4.45;;;21.70;55.70;;;;;;4890672;28;88261;-82
2023/05/16 10:28:35;;;;;;;23.90;5.00;;;21.70;55.90;;;;;;4908475;28;89191;-82
2023/05/16 10:31:01;;;;;;;19.75;6.25;;;21.70;56.70;;;;;;4891108;28;88182;-84
2023/05/16 10:33:27;;;;;;;18.17;5.18;;;21.80;56.80;;;;;;4890086;28;88448;-83
2023/05/16 10:35:54;;;;;;;28.92;8.10;;;21.70;57.00;;;;;;4894325;28;87888;-82
2023/05/16 10:38:22;;;;;;;25.83;5.97;;;21.80;55.70;;;;;;4888625;28;89288;-82
2023/05/16 10:40:49;;;;;;;22.27;6.30;;;21.80;55.80;;;;;;4908169;28;88649;-82
2023/05/16 10:43:26;;;;;;;19.30;5.18;;;21.90;55.80;;;;;;4891039;28;92036;-82
2023/05/16 10:46:03;;;;;;;21.75;5.00;;;21.80;55.10;;;;;;4890467;28;88543;-82
2023/05/16 10:48:40;;;;;;;18.10;4.45;;;21.90;55.20;;;;;;4890670;28;87612;-83
2023/05/16 10:51:21;;;;;;;19.13;4.35;;;21.90;54.90;;;;;;4892859;28;88208;-82
2023/05/16 10:53:51;;;;;;;14.88;3.78;;;21.90;54.60;;;;;;4903916;28;89619;-83
2023/05/16 10:56:22;;;;;;;16.85;4.45;;;21.90;54.80;;;;;;4892022;28;87901;-82
2023/05/16 10:58:48;;;;;;;16.10;4.60;;;21.90;55.10;;;;;;4889371;28;89491;-83
2023/05/16 11:01:21;;;;;;;11.75;4.28;;;21.90;54.50;;;;;;4891898;28;91902;-83
2023/05/16 11:03:56;;;;;;;16.08;3.70;;;21.90;54.50;;;;;;4891643;28;88621;-82
2023/05/16 11:06:26;;;;;;;13.80;4.35;;;21.90;54.40;;;;;;4892135;28;87872;-83
2023/05/16 11:09:09;;;;;;;11.75;3.88;;;21.80;54.70;;;;;;4892434;28;87374;-83
2023/05/16 11:11:45;;;;;;;13.90;3.22;;;21.90;55.00;;;;;;4908034;28;91291;-84
2023/05/16 11:14:32;;;;;;;16.80;4.80;;;21.90;53.70;;;;;;4906753;28;90077;-83
2023/05/16 11:17:06;;;;;;;14.40;4.07;;;21.80;54.30;;;;;;4895013;28;87420;-83
2023/05/16 11:19:38;;;;;;;12.75;3.35;;;21.80;54.40;;;;;;4894347;28;87943;-83
2023/05/16 11:22:23;;;;;;;12.73;3.80;;;21.70;55.30;;;;;;4893979;28;90847;-82
2023/05/16 11:25:05;;;;;;;15.52;3.70;;;21.60;56.10;;;;;;4908395;28;87791;-82
2023/05/16 11:27:31;;;;;;;9.73;2.92;;;21.60;56.70;;;;;;4891973;28;87500;-82
2023/05/16 11:30:10;;;;;;;10.63;3.17;;;21.60;56.90;;;;;;4893099;28;86577;-83
2023/05/16 11:32:37;;;;;;;10.52;3.28;;;21.60;57.10;;;;;;4893008;28;87428;-83
2023/05/16 11:35:07;;;;;;;11.63;3.35;;;21.60;57.20;;;;;;4892913;28;88157;-83
2023/05/16 11:37:35;;;;;;;13.57;3.97;;;21.60;57.50;;;;;;4893472;28;88440;-83
2023/05/16 11:40:03;;;;;;;13.23;3.40;;;21.60;57.80;;;;;;4892531;28;87801;-83
2023/05/16 11:42:34;;;;;;;9.93;4.03;;;21.50;58.20;;;;;;4893487;28;87951;-82
2023/05/16 11:45:08;;;;;;;9.05;3.35;;;21.60;56.60;;;;;;4893172;28;87731;-83
2023/05/16 11:47:37;;;;;;;13.27;3.90;;;21.60;56.20;;;;;;4890375;28;87605;-83
2023/05/16 11:50:10;;;;;;;10.25;3.83;;;21.60;56.50;;;;;;4893026;28;87979;-83
2023/05/16 11:52:36;;;;;;;9.70;3.15;;;21.70;56.90;;;;;;4893304;28;88040;-82
2023/05/16 11:55:05;;;;;;;9.48;3.22;;;21.80;55.60;;;;;;4893638;28;87650;-83
2023/05/16 11:57:31;;;;;;;8.93;3.25;;;21.70;55.20;;;;;;4893038;28;87844;-82
2023/05/16 12:00:03;;;;;;;9.98;2.78;;;21.80;55.30;;;;;;4890955;28;87404;-82
2023/05/16 12:02:28;;;;;;;9.40;3.10;;;21.90;55.10;;;;;;4892751;28;88876;-82
2023/05/16 12:04:55;;;;;;;9.27;3.25;;;21.90;54.90;;;;;;4892406;28;88393;-82
2023/05/16 12:07:26;;;;;;;10.32;2.80;;;21.90;55.00;;;;;;4891865;28;87987;-83
2023/05/16 12:09:52;;;;;;;10.70;4.57;;;21.90;55.30;;;;;;4908994;28;87714;-82
2023/05/16 12:12:20;;;;;;;9.65;2.75;;;21.90;55.90;;;;;;4890449;28;90355;-82
2023/05/16 12:14:46;;;;;;;13.40;3.47;;;21.80;55.60;;;;;;4889797;28;88449;-83
2023/05/16 12:17:12;;;;;;;7.95;3.08;;;21.80;55.50;;;;;;4889638;28;87773;-83
2023/05/16 12:19:38;;;;;;;8.80;2.35;;;21.80;54.90;;;;;;4894801;28;86801;-83
2023/05/16 12:22:04;;;;;;;7.63;2.47;;;21.80;54.80;;;;;;4893148;28;88359;-83
2023/05/16 12:24:30;;;;;;;6.53;2.65;;;21.80;54.90;;;;;;4893017;28;87871;-83
2023/05/16 12:26:56;;;;;;;6.53;2.53;;;21.80;54.70;;;;;;4892102;28;88240;-83
2023/05/16 12:29:24;;;;;;;8.25;2.35;;;21.80;55.30;;;;;;4891564;28;87844;-83
2023/05/16 12:31:52;;;;;;;8.90;2.53;;;21.80;54.60;;;;;;4892771;28;89719;-82
2023/05/16 12:34:22;;;;;;;7.65;2.30;;;21.90;54.60;;;;;;4891805;28;88183;-83
2023/05/16 12:36:52;;;;;;;10.98;2.67;;;21.90;54.80;;;;;;4890730;28;87761;-83
2023/05/16 12:39:19;;;;;;;6.75;2.28;;;21.90;54.30;;;;;;4890906;28;88860;-83
2023/05/16 12:41:45;;;;;;;4.57;2.10;;;21.80;54.60;;;;;;4892953;28;87525;-83
2023/05/16 12:44:15;;;;;;;8.50;2.53;;;21.80;54.30;;;;;;4892004;28;89291;-83
2023/05/16 12:46:47;;;;;;;7.60;2.30;;;21.80;54.60;;;;;;4894820;28;87459;-84